Antananarivo, Madagascar
Current Conditions -  °F | °C
As of 6:00 PM on Wednesday 26 Nov 2014 (Local Time) from FMMI Reporting Station
Broken Clouds Broken Clouds  
Wind Chill: 21°   Ceiling: 2000
Heat Index: 21°   Visibility: 6mi
Dew Point: 20°   Wind: 5mph
Humidity: 94%   Direction: 130°SE
Pressure: 29.94"   Gusts: NA
Location:  18.89°S, 47.51°E
Report Text: FMMI 261500Z 13004KT 040V180 9999 BKN020CB 21/20 Q1014 TEMPOTSRA
Loading
Personal Weather Stations






























Interactive Weather Map New forecast layout! Learn more

10-Day Weather Forecast

Advertisements
Track Severe Weather on mobile